createdAt,value
2022-08-31T00:03:00.358Z,30.71
2022-08-31T00:05:49.247Z,30.71
2022-08-31T00:08:32.510Z,30.63
2022-08-31T00:11:22.077Z,30.64
2022-08-31T00:14:14.982Z,30.62
2022-08-31T00:17:04.316Z,30.65
2022-08-31T00:19:46.523Z,30.67
2022-08-31T00:22:35.327Z,30.70
2022-08-31T00:25:18.387Z,30.60
2022-08-31T00:28:07.330Z,30.71
2022-08-31T00:30:50.439Z,30.63
2022-08-31T00:33:39.087Z,30.67
2022-08-31T00:36:22.706Z,30.59
2022-08-31T00:39:13.235Z,30.67
2022-08-31T00:41:55.520Z,30.64
2022-08-31T00:44:44.049Z,30.61
2022-08-31T00:47:26.321Z,30.57
2022-08-31T00:50:18.228Z,30.59
2022-08-31T00:53:07.280Z,30.57
2022-08-31T00:55:56.072Z,30.64
2022-08-31T00:58:39.391Z,30.66
2022-08-31T01:01:29.675Z,30.70
2022-08-31T01:04:12.616Z,30.69
2022-08-31T01:07:01.336Z,30.78
2022-08-31T01:09:55.723Z,30.79
2022-08-31T01:12:45.478Z,30.81
2022-08-31T01:15:36.234Z,30.84
2022-08-31T01:18:25.988Z,30.89
2022-08-31T01:21:20.630Z,30.89
2022-08-31T01:24:07.318Z,30.92
2022-08-31T01:26:55.880Z,30.94
2022-08-31T01:29:40.348Z,31.00
2022-08-31T01:32:29.348Z,31.01
2022-08-31T01:35:12.645Z,31.02
2022-08-31T01:38:01.993Z,31.10
2022-08-31T01:41:01.022Z,31.20
2022-08-31T01:43:50.420Z,31.28
2022-08-31T01:46:33.194Z,31.25
2022-08-31T01:49:17.657Z,31.32
2022-08-31T01:52:07.122Z,31.29
2022-08-31T01:54:49.426Z,31.35
2022-08-31T01:57:38.334Z,31.39
2022-08-31T02:00:41.161Z,31.47
2022-08-31T02:03:30.063Z,31.58
2022-08-31T02:06:21.001Z,31.63
2022-08-31T02:09:11.085Z,31.68
2022-08-31T02:12:00.628Z,31.94
2022-08-31T02:14:55.126Z,32.08
2022-08-31T02:17:52.681Z,32.26
2022-08-31T02:20:41.331Z,32.52
2022-08-31T02:23:25.366Z,32.67
2022-08-31T02:26:14.411Z,32.69
2022-08-31T02:28:56.615Z,32.90
2022-08-31T02:31:45.107Z,32.94
2022-08-31T02:34:34.981Z,32.94
2022-08-31T02:37:25.622Z,32.92
2022-08-31T02:40:16.015Z,32.72
2022-08-31T02:43:05.338Z,32.77
2022-08-31T02:45:50.990Z,32.79
2022-08-31T02:48:48.233Z,32.89
2022-08-31T02:51:37.242Z,32.92
2022-08-31T02:54:26.653Z,32.92
2022-08-31T02:57:09.967Z,33.01
2022-08-31T02:59:51.415Z,33.03
2022-08-31T03:02:42.055Z,33.18
2022-08-31T03:05:24.860Z,33.27
2022-08-31T03:08:13.076Z,33.30
2022-08-31T03:11:05.035Z,33.29
2022-08-31T03:13:58.423Z,33.51
2022-08-31T03:16:54.993Z,33.51
2022-08-31T03:19:50.222Z,33.69
2022-08-31T03:22:39.523Z,33.71
2022-08-31T03:25:25.063Z,33.78
2022-08-31T03:28:08.897Z,33.93
2022-08-31T03:31:12.379Z,34.04
2022-08-31T03:33:55.045Z,34.12
2022-08-31T03:36:43.983Z,34.25
2022-08-31T03:39:40.356Z,34.39
2022-08-31T03:42:29.401Z,34.38
2022-08-31T03:45:19.635Z,34.32
2022-08-31T03:48:12.554Z,34.28
2022-08-31T03:50:55.602Z,34.33
2022-08-31T03:53:48.072Z,34.29
2022-08-31T03:56:30.404Z,34.36
2022-08-31T03:59:22.064Z,34.46
2022-08-31T04:02:46.640Z,34.37
2022-08-31T04:05:49.362Z,34.54
2022-08-31T04:08:37.445Z,34.68
2022-08-31T04:11:51.841Z,34.76
2022-08-31T04:14:58.983Z,34.85
2022-08-31T04:18:13.312Z,34.94
2022-08-31T04:21:03.380Z,35.07
2022-08-31T04:23:47.951Z,35.04
2022-08-31T04:26:40.324Z,35.32
2022-08-31T04:29:22.674Z,35.45
2022-08-31T04:32:11.065Z,35.46
2022-08-31T04:34:56.667Z,35.91
2022-08-31T04:37:49.239Z,36.13
2022-08-31T04:40:39.363Z,36.49
2022-08-31T04:43:24.130Z,36.91
2022-08-31T04:46:13.012Z,37.00
2022-08-31T04:49:01.620Z,37.31
2022-08-31T04:51:46.333Z,37.47
2022-08-31T04:54:34.605Z,37.58
2022-08-31T04:57:17.230Z,37.66
2022-08-31T05:00:09.344Z,37.95
2022-08-31T05:03:11.703Z,37.95
2022-08-31T05:06:01.248Z,38.21
2022-08-31T05:08:43.402Z,38.20
2022-08-31T05:11:33.251Z,38.21
2022-08-31T05:14:16.652Z,38.00
2022-08-31T05:17:15.342Z,38.34
2022-08-31T05:19:59.400Z,38.32
2022-08-31T05:22:48.071Z,37.88
2022-08-31T05:25:30.802Z,38.25
2022-08-31T05:28:19.292Z,38.43
2022-08-31T05:31:09.138Z,38.21
2022-08-31T05:34:00.075Z,38.57
2022-08-31T05:36:46.513Z,38.46
2022-08-31T05:39:35.235Z,38.41
2022-08-31T05:42:20.742Z,38.87
2022-08-31T05:45:10.063Z,38.74
2022-08-31T05:47:53.551Z,38.75
2022-08-31T05:50:42.136Z,38.59
2022-08-31T05:53:24.649Z,38.63
2022-08-31T05:56:19.187Z,38.42
2022-08-31T05:59:11.276Z,38.48
2022-08-31T06:01:53.586Z,38.45
2022-08-31T06:04:45.292Z,38.58
2022-08-31T06:07:35.351Z,38.51
2022-08-31T06:10:22.034Z,38.73
2022-08-31T06:13:06.193Z,38.68
2022-08-31T06:15:56.211Z,38.18
2022-08-31T06:18:39.727Z,38.39
2022-08-31T06:21:49.673Z,38.44
2022-08-31T06:24:48.074Z,38.34
2022-08-31T06:27:37.337Z,38.18
2022-08-31T06:30:23.163Z,38.68
2022-08-31T06:33:12.332Z,38.35
2022-08-31T06:36:06.332Z,38.53
2022-08-31T06:39:11.338Z,37.99
2022-08-31T06:41:59.382Z,37.57
2022-08-31T06:45:06.239Z,37.55
2022-08-31T06:48:08.071Z,38.24
2022-08-31T06:51:05.024Z,37.76
2022-08-31T06:53:56.236Z,37.62
2022-08-31T06:56:59.901Z,37.30
2022-08-31T07:00:15.013Z,36.96
2022-08-31T07:03:33.879Z,36.60
2022-08-31T07:06:29.278Z,37.02
2022-08-31T07:09:14.810Z,37.13
2022-08-31T07:12:05.365Z,37.26
2022-08-31T07:14:54.971Z,37.81
2022-08-31T07:17:38.125Z,37.92
2022-08-31T07:20:20.652Z,38.24
2022-08-31T07:23:15.191Z,38.35
2022-08-31T07:26:14.301Z,38.43
2022-08-31T07:29:04.113Z,38.51
2022-08-31T07:31:54.055Z,38.70
2022-08-31T07:34:39.450Z,38.36
2022-08-31T07:38:06.149Z,38.84
2022-08-31T07:41:08.211Z,38.71
2022-08-31T07:43:57.294Z,38.12
2022-08-31T07:46:46.390Z,38.30
2022-08-31T07:49:38.284Z,38.37
2022-08-31T07:52:41.272Z,38.05
2022-08-31T07:55:42.758Z,37.96
2022-08-31T07:58:48.264Z,37.81
2022-08-31T08:01:36.030Z,38.24
2022-08-31T08:04:33.389Z,38.44
2022-08-31T08:07:34.729Z,38.31
2022-08-31T08:10:35.667Z,38.43
2022-08-31T08:13:36.729Z,37.92
2022-08-31T08:16:35.313Z,38.11
2022-08-31T08:19:50.378Z,38.76
2022-08-31T08:22:51.599Z,38.76
2022-08-31T08:25:54.259Z,38.34
2022-08-31T08:28:57.427Z,38.14
2022-08-31T08:31:46.068Z,38.60
2022-08-31T08:34:35.870Z,38.54
2022-08-31T08:37:40.999Z,38.61
2022-08-31T08:40:43.451Z,38.64
2022-08-31T08:43:36.963Z,38.43
2022-08-31T08:47:37.691Z,38.16
2022-08-31T08:49:43.108Z,38.46
2022-08-31T08:52:38.604Z,38.20
2022-08-31T08:55:25.093Z,37.53
2022-08-31T08:58:18.094Z,37.31
2022-08-31T09:01:05.112Z,37.74
2022-08-31T09:04:29.225Z,37.90
2022-08-31T09:07:37.955Z,37.88
2022-08-31T09:10:40.327Z,37.95
2022-08-31T09:14:20.201Z,37.75
2022-08-31T09:17:31.969Z,37.36
2022-08-31T09:20:23.986Z,36.66
2022-08-31T09:23:19.072Z,36.98
2022-08-31T09:26:13.970Z,36.82
2022-08-31T09:29:36.104Z,36.71
2022-08-31T09:32:26.456Z,36.62
2022-08-31T09:35:48.225Z,36.21
2022-08-31T09:38:37.664Z,36.66
2022-08-31T09:41:50.550Z,36.34
2022-08-31T09:44:42.594Z,36.09
2022-08-31T09:48:03.072Z,36.29
2022-08-31T09:50:52.974Z,36.17
2022-08-31T09:54:01.098Z,36.25
2022-08-31T09:57:15.218Z,36.16
2022-08-31T10:00:04.091Z,36.01
2022-08-31T10:02:54.051Z,35.91
2022-08-31T10:05:46.624Z,36.15
2022-08-31T10:09:01.357Z,35.89
2022-08-31T10:11:48.367Z,35.73
2022-08-31T10:14:49.350Z,36.00
2022-08-31T10:17:52.622Z,35.79
2022-08-31T10:20:40.080Z,36.11
2022-08-31T10:24:02.445Z,36.28
2022-08-31T10:27:08.929Z,36.27
2022-08-31T10:30:04.080Z,35.93
2022-08-31T10:33:13.176Z,35.94
2022-08-31T10:36:06.356Z,35.94
2022-08-31T10:38:57.010Z,36.03
2022-08-31T10:41:44.999Z,36.22
2022-08-31T10:45:00.367Z,36.20
2022-08-31T10:47:50.223Z,36.32
2022-08-31T10:50:53.332Z,36.25
2022-08-31T10:53:53.692Z,36.15
2022-08-31T10:56:48.994Z,36.17
2022-08-31T11:00:02.520Z,36.06
2022-08-31T11:03:24.268Z,36.15
2022-08-31T11:06:35.970Z,36.22
2022-08-31T11:09:26.622Z,36.12
2022-08-31T11:12:19.216Z,36.02
2022-08-31T11:15:14.110Z,35.94
2022-08-31T11:18:21.239Z,35.95
2022-08-31T11:21:28.293Z,35.81
2022-08-31T11:24:37.522Z,36.23
2022-08-31T11:27:41.085Z,36.03
2022-08-31T11:30:45.255Z,35.85
2022-08-31T11:33:44.396Z,35.93
2022-08-31T11:37:01.149Z,35.75
2022-08-31T11:39:53.347Z,35.80
2022-08-31T11:42:38.763Z,35.84
2022-08-31T11:45:45.283Z,35.99
2022-08-31T11:48:58.293Z,36.08
2022-08-31T11:51:50.320Z,35.96
2022-08-31T11:54:49.584Z,35.90
2022-08-31T11:58:03.811Z,35.97
2022-08-31T12:01:06.049Z,36.07
2022-08-31T12:04:04.062Z,35.84
2022-08-31T12:06:55.220Z,35.90
2022-08-31T12:09:47.062Z,35.79
2022-08-31T12:13:27.320Z,35.63
2022-08-31T12:16:35.218Z,35.76
2022-08-31T12:19:51.054Z,35.72
2022-08-31T12:23:30.248Z,35.78
2022-08-31T12:27:07.232Z,35.71
2022-08-31T12:30:06.176Z,35.52
2022-08-31T12:33:06.074Z,35.41
2022-08-31T12:35:50.392Z,35.33
2022-08-31T12:38:38.972Z,35.55
2022-08-31T12:41:25.334Z,35.38
2022-08-31T12:44:14.962Z,35.29
2022-08-31T12:47:13.594Z,35.22
2022-08-31T12:50:20.067Z,35.19
2022-08-31T12:53:20.348Z,35.24
2022-08-31T12:56:29.997Z,35.12
2022-08-31T12:59:21.646Z,35.19
2022-08-31T13:02:11.154Z,34.99
2022-08-31T13:04:55.375Z,34.88
2022-08-31T13:07:44.007Z,34.92
2022-08-31T13:10:52.323Z,34.83
2022-08-31T13:13:34.450Z,34.87
2022-08-31T13:16:24.318Z,34.79
2022-08-31T13:19:15.967Z,34.76
2022-08-31T13:22:09.274Z,34.60
2022-08-31T13:24:54.331Z,34.59
2022-08-31T13:27:46.366Z,34.54
2022-08-31T13:30:55.192Z,34.55
2022-08-31T13:33:55.989Z,34.46
2022-08-31T13:36:55.977Z,34.39
2022-08-31T13:39:55.158Z,34.28
2022-08-31T13:42:56.599Z,34.15
2022-08-31T13:45:51.177Z,34.19
2022-08-31T13:48:48.066Z,34.36
2022-08-31T13:54:50.360Z,34.43
2022-08-31T13:57:41.465Z,34.51
2022-08-31T14:00:43.325Z,34.55
2022-08-31T14:04:00.909Z,34.64
2022-08-31T14:06:45.064Z,34.76
2022-08-31T14:09:33.968Z,34.73
2022-08-31T14:12:22.951Z,34.77
2022-08-31T14:15:36.545Z,34.83
2022-08-31T14:18:34.102Z,34.67
2022-08-31T14:21:29.240Z,34.69
2022-08-31T14:24:14.165Z,34.66
2022-08-31T14:27:03.233Z,34.56
2022-08-31T14:29:45.540Z,34.56
2022-08-31T14:32:36.231Z,34.45
2022-08-31T14:35:25.107Z,34.61
2022-08-31T14:38:13.950Z,34.51
2022-08-31T14:41:03.031Z,34.47
2022-08-31T14:43:47.462Z,34.41
2022-08-31T14:46:37.997Z,34.29
2022-08-31T14:49:20.298Z,34.23
2022-08-31T14:52:11.979Z,34.11
2022-08-31T14:55:10.159Z,33.93
2022-08-31T14:58:13.073Z,34.08
2022-08-31T15:01:14.026Z,33.96
2022-08-31T15:04:05.183Z,33.85
2022-08-31T15:06:48.298Z,33.72
2022-08-31T15:09:30.665Z,33.70
2022-08-31T15:12:20.100Z,33.59
2022-08-31T15:15:12.299Z,33.52
2022-08-31T15:17:58.070Z,33.47
2022-08-31T15:20:50.085Z,33.47
2022-08-31T15:23:42.635Z,33.37
2022-08-31T15:26:31.313Z,33.33
2022-08-31T15:29:16.485Z,33.32
2022-08-31T15:32:06.003Z,33.31
2022-08-31T15:34:54.033Z,33.31
2022-08-31T15:37:43.111Z,33.23
2022-08-31T15:40:28.976Z,33.22
2022-08-31T15:43:23.278Z,33.25
2022-08-31T15:46:05.481Z,33.36
2022-08-31T15:48:54.036Z,33.33
2022-08-31T15:51:43.143Z,33.26
2022-08-31T15:54:29.071Z,33.21
2022-08-31T15:57:20.079Z,33.18
2022-08-31T16:00:15.061Z,33.24
2022-08-31T16:03:05.040Z,33.22
2022-08-31T16:05:47.308Z,33.12
2022-08-31T16:08:35.958Z,33.15
2022-08-31T16:11:19.339Z,33.18
2022-08-31T16:14:08.026Z,33.20
2022-08-31T16:16:53.489Z,33.23
2022-08-31T16:19:49.066Z,33.21
2022-08-31T16:22:43.877Z,33.28
2022-08-31T16:25:48.472Z,33.31
2022-08-31T16:28:38.035Z,33.28
2022-08-31T16:31:20.308Z,33.42
2022-08-31T16:34:09.013Z,33.42
2022-08-31T16:36:51.503Z,33.35
2022-08-31T16:39:40.051Z,33.51
2022-08-31T16:43:13.075Z,33.46
2022-08-31T16:45:56.297Z,33.45
2022-08-31T16:49:03.056Z,33.55
2022-08-31T16:51:48.526Z,33.44
2022-08-31T16:54:37.252Z,33.47
2022-08-31T16:57:26.270Z,33.50
2022-08-31T17:00:10.997Z,33.58
2022-08-31T17:02:59.992Z,33.59
2022-08-31T17:05:43.630Z,33.62
2022-08-31T17:08:32.071Z,33.65
2022-08-31T17:11:27.287Z,33.67
2022-08-31T17:14:12.036Z,33.77
2022-08-31T17:16:54.367Z,33.62
2022-08-31T17:19:43.058Z,33.68
2022-08-31T17:22:33.601Z,33.74
2022-08-31T17:25:15.385Z,33.67
2022-08-31T17:28:07.571Z,33.62
2022-08-31T17:30:49.372Z,33.61
2022-08-31T17:33:39.000Z,33.65
2022-08-31T17:36:28.061Z,33.68
2022-08-31T17:39:11.771Z,33.62
2022-08-31T17:42:02.056Z,33.47
2022-08-31T17:44:52.896Z,33.55
2022-08-31T17:47:34.978Z,33.59
2022-08-31T17:50:30.069Z,33.60
2022-08-31T17:53:12.230Z,33.51
2022-08-31T17:56:11.080Z,33.48
2022-08-31T17:58:56.169Z,33.34
2022-08-31T18:01:45.028Z,33.47
2022-08-31T18:04:35.736Z,33.27
2022-08-31T18:07:18.981Z,33.31
2022-08-31T18:10:08.061Z,33.32
2022-08-31T18:12:50.387Z,33.31
2022-08-31T18:15:39.073Z,33.32
2022-08-31T18:18:22.723Z,33.16
2022-08-31T18:21:15.103Z,33.28
2022-08-31T18:23:59.417Z,33.07
2022-08-31T18:26:57.069Z,33.22
2022-08-31T18:29:53.845Z,33.27
2022-08-31T18:32:47.337Z,33.23
2022-08-31T18:35:38.109Z,33.17
2022-08-31T18:38:20.428Z,33.07
2022-08-31T18:41:26.948Z,33.05
2022-08-31T18:44:34.448Z,33.01
2022-08-31T18:47:19.956Z,33.00
2022-08-31T18:50:09.532Z,32.97
2022-08-31T18:52:52.098Z,32.98
2022-08-31T18:55:34.550Z,32.96
2022-08-31T18:58:23.074Z,32.92
2022-08-31T19:01:14.047Z,32.90
2022-08-31T19:03:57.037Z,32.85
2022-08-31T19:06:47.632Z,32.85
2022-08-31T19:09:31.034Z,32.81
2022-08-31T19:12:24.636Z,32.82
2022-08-31T19:15:06.676Z,32.78
2022-08-31T19:17:56.939Z,32.76
2022-08-31T19:20:39.478Z,32.72
2022-08-31T19:23:28.254Z,32.75
2022-08-31T19:26:10.422Z,32.74
2022-08-31T19:29:04.946Z,32.69
2022-08-31T19:31:57.124Z,32.73
2022-08-31T19:34:51.029Z,32.67
2022-08-31T19:37:33.231Z,32.70
2022-08-31T19:40:25.303Z,32.70
2022-08-31T19:46:37.967Z,32.63
2022-08-31T19:49:27.036Z,32.64
2022-08-31T19:52:20.239Z,32.62
2022-08-31T19:55:09.721Z,32.63
2022-08-31T19:57:50.950Z,32.63
2022-08-31T20:00:39.402Z,32.60
2022-08-31T20:03:22.026Z,32.61
2022-08-31T20:06:14.311Z,32.75
2022-08-31T20:08:57.932Z,32.58
2022-08-31T20:11:48.292Z,32.66
2022-08-31T20:14:30.998Z,32.49
2022-08-31T20:17:20.884Z,32.42
2022-08-31T20:20:02.957Z,32.41
2022-08-31T20:22:54.817Z,32.34
2022-08-31T20:25:36.722Z,32.34
2022-08-31T20:28:35.898Z,32.28
2022-08-31T20:31:30.022Z,32.28
2022-08-31T20:34:20.411Z,32.21
2022-08-31T20:37:06.641Z,32.17
2022-08-31T20:39:54.335Z,32.16
2022-08-31T20:42:35.940Z,32.16
2022-08-31T20:45:25.314Z,32.23
2022-08-31T20:48:26.277Z,32.17
2022-08-31T20:51:21.122Z,32.17
2022-08-31T20:54:03.950Z,32.17
2022-08-31T20:56:53.545Z,32.16
2022-08-31T20:59:36.289Z,32.09
2022-08-31T21:02:20.433Z,32.07
2022-08-31T21:05:36.467Z,32.10
2022-08-31T21:08:19.203Z,32.00
2022-08-31T21:11:01.308Z,31.93
2022-08-31T21:13:51.952Z,31.98
2022-08-31T21:16:35.532Z,32.00
2022-08-31T21:19:29.948Z,31.96
2022-08-31T21:22:14.443Z,31.92
2022-08-31T21:25:08.198Z,31.88
2022-08-31T21:27:53.949Z,31.90
2022-08-31T21:30:49.730Z,31.88
2022-08-31T21:33:32.300Z,31.90
2022-08-31T21:36:36.939Z,31.86
2022-08-31T21:39:28.333Z,31.87
2022-08-31T21:42:11.224Z,31.83
2022-08-31T21:44:59.386Z,31.89
2022-08-31T21:47:42.272Z,31.80
2022-08-31T21:50:30.343Z,31.78
2022-08-31T21:53:12.328Z,31.81
2022-08-31T21:55:54.930Z,31.75
2022-08-31T21:58:44.029Z,31.78
2022-08-31T22:01:34.395Z,31.76
2022-08-31T22:04:18.036Z,31.76
2022-08-31T22:07:00.968Z,31.80
2022-08-31T22:09:50.991Z,31.80
2022-08-31T22:12:40.284Z,31.77
2022-08-31T22:15:30.965Z,31.75
2022-08-31T22:18:59.237Z,31.77
2022-08-31T22:21:27.601Z,31.74
2022-08-31T22:24:27.053Z,31.78
2022-08-31T22:27:14.889Z,31.74
2022-08-31T22:30:04.285Z,31.73
2022-08-31T22:32:58.917Z,31.73
2022-08-31T22:35:48.039Z,31.69
2022-08-31T22:38:30.311Z,31.65
2022-08-31T22:41:20.357Z,31.65
2022-08-31T22:44:10.158Z,31.60
2022-08-31T22:46:59.458Z,31.63
2022-08-31T22:49:41.527Z,31.58
2022-08-31T22:52:30.269Z,31.61
2022-08-31T22:55:21.301Z,31.65
2022-08-31T22:58:10.315Z,31.62
2022-08-31T23:00:55.294Z,31.66
2022-08-31T23:03:44.316Z,31.67
2022-08-31T23:06:28.433Z,31.64
2022-08-31T23:09:19.026Z,31.64
2022-08-31T23:12:03.368Z,31.63
2022-08-31T23:14:52.062Z,31.65
2022-08-31T23:17:41.023Z,31.61
2022-08-31T23:20:24.970Z,31.64
2022-08-31T23:23:14.066Z,31.59
2022-08-31T23:26:09.781Z,31.59
2022-08-31T23:28:54.272Z,31.55
2022-08-31T23:31:52.254Z,31.53
2022-08-31T23:34:40.454Z,31.54
2022-08-31T23:37:23.362Z,31.54
2022-08-31T23:40:16.767Z,31.56
2022-08-31T23:42:58.291Z,31.57
2022-08-31T23:45:46.493Z,31.59
2022-08-31T23:48:30.290Z,31.58
2022-08-31T23:51:19.665Z,31.62
2022-08-31T23:54:05.279Z,31.64
2022-08-31T23:56:49.116Z,31.63
2022-08-31T23:59:39.290Z,31.68
